LGAVLGMK

Guest
Details From LGAV - Athens Intl Airport Elefterios Venizel
To LGMK - Mikonos
Flight Number -
Tags generated
Created
Modified
Stats Distance 73 nm / 136 km
Max Altitude 0 ft / 0 m
Waypoints 3
Social Downloads 1
Likes 0
Share VATSIM

Download

Looking for another format? Having issues loading an existing format? Contact us
Advertisement - Login to hide

Notes

Basic altitude profile: - Ascent Rate: 2500ft/min - Ascent Speed: 250kts - Cruise Altitude: 35000ft - Cruise Speed: 420kts - Descent Rate: 1500ft/min - Descent Speed: 250kts Options: - Use NATs: yes - Use PACOTS: yes - Use low airways: yes - Use high airways: no

Route

LGAV MKN LGMK

ID Type Via Altitude Latitude Longitude Leg Dist Tot Dist Heading (true) Name
O LGAV APT - 0 ft / 0 m 37.93636˚ 23.94447˚ - 0 nm - Athens Intl Airport Elefterios Venizel
MKN VOR - 0 ft / 0 m 37.44027˚ 25.34449˚ 72 nm 72 nm 114° / 115° MIKONOS VOR-DME
O LGMK APT - 0 ft / 0 m 37.43539˚ 25.34814˚ 0 nm 73 nm 149° / 149° Mikonos

Altitude Profile

Advertisement - Login to hide

LGAV

Details ICAO LGAV (ATH)
Name Athens Intl Airport Elefterios Venizel
Region Greece
Timezone Europe/Athens (UTC+2.0)
Stats Elevation 308 ft / 94 m (AMSL)
Location 37.936357° 23.944470°
Runways 2
Magnetic Variation 4.484° E

METAR

LGAV 161120Z 18015KT 9999 SCT018 SCT025 18/13 Q1012 NOSIG

Decode

TAF

TAF TAF LGAV 160500Z 1606/1706 20015KT 9999 FEW025 BECMG 1606/1608 20018G28KT SCT020 SCT070 PROB30 TEMPO 1612/1621 5000 RA SCT020 BKN070 PROB30 TEMPO 1615/1618 4000 TSRA SCT016 FEW018CB OVC070

Decode

Departure Runways

ID Width Length Bearing (true) Bearing (mag) Surface Threshold Offset Overrun Length
03L 148 ft / 45 m 12,474 ft / 3,802 m 36.51° 32.03° Asphalt 984 ft / 300 m 393 ft / 120 m
03R 148 ft / 45 m 13,131 ft / 4,002 m 36.52° 32.04° Asphalt 984 ft / 300 m 393 ft / 120 m
21L 148 ft / 45 m 13,131 ft / 4,002 m 216.54° 212.06° Asphalt 984 ft / 300 m 393 ft / 120 m
21R 148 ft / 45 m 12,474 ft / 3,802 m 216.53° 212.05° Asphalt 984 ft / 300 m 393 ft / 120 m

LGMK

Details ICAO LGMK (JMK)
Name Mikonos
Region Greece
Timezone Europe/Athens (UTC+2.0)
Stats Elevation 405 ft / 123 m (AMSL)
Location 37.435385° 25.348138°
Runways 1
Magnetic Variation 4.601° E

METAR

LGMK 161120Z 18015KT 9999 FEW018 18/11 Q1015

Decode

TAF

Not found

Destination Runways

ID Width Length Bearing (true) Bearing (mag) Surface Threshold Offset Overrun Length
16 98 ft / 30 m 6,423 ft / 1,958 m 160.63° 156.03° Asphalt 0 ft / 0 m 200 ft / 61 m
34 98 ft / 30 m 6,423 ft / 1,958 m 340.63° 336.03° Asphalt 0 ft / 0 m 200 ft / 61 m

Popular Alternatives